Whiting Field Naval Air Station North Airport
KNSE : now visible

Airfield :











YOU CAN JOIN US ON...

 
LOGIN :

Register | Disclaimer

   EN    FR    IT 

 









Legend :    VFR   Marginal VFR   IFR   Intensive IFR   Very Intensive IFR
Visi :
Ceiling :
>= 8 km
>= 3000ft
5 to 8 km
1000 to 3000 ft
1500m to 5 km
500 to 1000 ft
800 to 1500m
200 to 500 ft
< 800m
< 200 ft
Symbols :   Thunderstorms  Fog  Heavy snow  Heavy precipitations  Wind > 20 kt







- Airport Elevation : 199 ft


KNSE - Whiting Field Naval Air Station North

CURRENT METAR :
  • 191156Z 28006KT 10SM BKN026 BKN250 17/17 A2961 RMK AO2 SLP012 6//// 7//// T01720167 51008 $

EXPIRED METARs :
  • 191148Z 27007KT 10SM SCT026 OVC033 17/17 A2961 RMK AO2 T01720167 $
  • 191056Z VRB06KT 10SM FEW016 OVC028 17/17 A2960 RMK AO2 SLP011 T01720172 $
  • 190956Z AUTO A2959 RMK AO2 SLPNO PWINO TSNO $

TAF TAF KNSE
Valid from the 19 at 07:00 until the 20 at 07:00 UTC


1907/2007 27015G25KT 9999 VCTS SCT005 OVC120CB 530009 QNH2952INS
TEMPO 1908/1910 VRB15G30KT 3200 TSRA BKN005 OVC012CB 530009 QNH2962INS
FM191000 31012G20KT 9999 SCT012 OVC020 530009 QNH2963INS
FM191400 32018G28KT 9999 BKN020 OVC035 530009 QNH2968INS
TEMPO 1920/2004 32018G30KT 9999 SCT020 BKN035 OVC080 530009 QNH2971INS
BECMG 2004/2006 29008KT 9999 SKC 500000 QNH2964INS T20/1909Z T12/2006Z FN00210
KZJX FIR / North America



MET'MAP, your aeronautical weather chart ! - Copyright ORBIFLY December 2007 - Disclaimer

ORBIFLY MET'MAP TEAM :

Programming & Development : Alexandra Zaïnal
Concept & Development : Baudouin d'Aumeries
Co-Development & Prog : Marc-Olivier Méhu
Technical & hardware support : Manuel Goepfert

Contact : metmap@orbifly.com




SOURCES & CREDITS :

   NOAA       Earth
Advisory